createdAt,value
2023-01-22T00:00:25.391Z,100862.07
2023-01-22T00:01:29.465Z,100862.05
2023-01-22T00:02:31.537Z,100863.78
2023-01-22T00:03:35.061Z,100856.91
2023-01-22T00:04:37.386Z,100863.78
2023-01-22T00:05:39.218Z,100859.50
2023-01-22T00:06:41.556Z,100868.92
2023-01-22T00:07:43.748Z,100866.34
2023-01-22T00:08:47.587Z,100866.37
2023-01-22T00:09:49.720Z,100874.08
2023-01-22T00:10:54.064Z,100863.80
2023-01-22T00:11:57.309Z,100867.20
2023-01-22T00:12:59.411Z,100870.65
2023-01-22T00:14:01.496Z,100864.64
2023-01-22T00:15:04.233Z,100866.35
2023-01-22T00:16:08.227Z,100868.94
2023-01-22T00:17:10.403Z,100874.08
2023-01-22T00:18:12.847Z,100870.66
2023-01-22T00:19:15.021Z,100876.66
2023-01-22T00:20:18.051Z,100868.95
2023-01-22T00:21:20.781Z,100877.50
2023-01-22T00:22:22.805Z,100870.64
2023-01-22T00:23:25.131Z,100868.05
2023-01-22T00:24:27.136Z,100866.38
2023-01-22T00:25:29.209Z,100869.81
2023-01-22T00:26:31.709Z,100871.51
2023-01-22T00:27:33.825Z,100867.22
2023-01-22T00:28:37.449Z,100866.34
2023-01-22T00:29:40.438Z,100868.91
2023-01-22T00:30:42.822Z,100868.91
2023-01-22T00:31:44.946Z,100869.75
2023-01-22T00:32:47.192Z,100877.50
2023-01-22T00:33:49.318Z,100882.67
2023-01-22T00:34:52.047Z,100877.50
2023-01-22T00:35:54.235Z,100884.37
2023-01-22T00:36:56.809Z,100882.66
2023-01-22T00:37:58.814Z,100884.38
2023-01-22T00:39:01.264Z,100880.93
2023-01-22T00:40:04.275Z,100884.34
2023-01-22T00:41:08.004Z,100889.52
2023-01-22T00:42:10.807Z,100891.24
2023-01-22T00:43:12.937Z,100892.11
2023-01-22T00:44:15.573Z,100893.81
2023-01-22T00:45:17.598Z,100886.97
2023-01-22T00:46:20.360Z,100896.41
2023-01-22T00:47:22.550Z,100897.27
2023-01-22T00:48:24.924Z,100898.97
2023-01-22T00:49:27.512Z,100898.97
2023-01-22T00:50:30.099Z,100896.39
2023-01-22T00:51:34.046Z,100894.66
2023-01-22T00:52:37.245Z,100882.65
2023-01-22T00:53:43.184Z,100882.65
2023-01-22T00:54:45.665Z,100895.51
2023-01-22T00:55:56.879Z,100901.52
2023-01-22T00:56:59.455Z,100897.23
2023-01-22T00:58:01.450Z,100904.13
2023-01-22T00:59:05.364Z,100906.70
2023-01-22T01:00:09.699Z,100903.28
2023-01-22T01:01:14.811Z,100907.58
2023-01-22T01:02:17.998Z,100899.83
2023-01-22T01:03:27.511Z,100911.84
2023-01-22T01:04:29.629Z,100904.09
2023-01-22T01:05:31.565Z,100902.38
2023-01-22T01:06:33.767Z,100902.38
2023-01-22T01:07:35.970Z,100916.97
2023-01-22T01:08:41.583Z,100920.42
2023-01-22T01:09:43.529Z,100905.80
2023-01-22T01:10:45.870Z,100909.25
2023-01-22T01:11:48.842Z,100913.54
2023-01-22T01:12:52.608Z,100916.11
2023-01-22T01:13:55.040Z,100915.28
2023-01-22T01:14:57.063Z,100910.99
2023-01-22T01:16:01.189Z,100909.27
2023-01-22T01:17:03.617Z,100911.84
2023-01-22T01:18:05.616Z,100911.84
2023-01-22T01:19:11.673Z,100910.98
2023-01-22T01:20:14.043Z,100917.00
2023-01-22T01:21:18.667Z,100917.00
2023-01-22T01:22:20.823Z,100925.56
2023-01-22T01:23:24.517Z,100923.00
2023-01-22T01:24:26.752Z,100925.59
2023-01-22T01:25:29.034Z,100920.42
2023-01-22T01:26:32.932Z,100928.16
2023-01-22T01:27:35.044Z,100929.03
2023-01-22T01:28:39.534Z,100925.58
2023-01-22T01:29:41.488Z,100923.87
2023-01-22T01:30:44.546Z,100922.16
2023-01-22T01:31:47.291Z,100926.45
2023-01-22T01:32:49.704Z,100920.43
2023-01-22T01:33:52.444Z,100920.44
2023-01-22T01:34:56.996Z,100926.47
2023-01-22T01:36:06.466Z,100929.02
2023-01-22T01:37:09.328Z,100924.74
2023-01-22T01:38:11.313Z,100925.58
2023-01-22T01:39:13.712Z,100931.60
2023-01-22T01:40:16.378Z,100929.02
2023-01-22T01:41:22.584Z,100933.30
2023-01-22T01:42:29.145Z,100929.03
2023-01-22T01:43:32.138Z,100923.88
2023-01-22T01:44:37.950Z,100925.59
2023-01-22T01:45:40.238Z,100923.87
2023-01-22T01:46:49.481Z,100924.73
2023-01-22T01:48:01.495Z,100929.02
2023-01-22T01:49:04.882Z,100926.47
2023-01-22T01:50:08.915Z,100930.75
2023-01-22T01:51:23.719Z,100931.62
2023-01-22T01:52:26.044Z,100929.88
2023-01-22T01:53:28.601Z,100935.91
2023-01-22T01:54:31.023Z,100929.88
2023-01-22T01:55:35.062Z,100930.72
2023-01-22T01:56:41.218Z,100932.46
2023-01-22T01:57:44.489Z,100938.48
2023-01-22T01:58:52.288Z,100935.89
2023-01-22T01:59:55.983Z,100927.31
2023-01-22T02:01:07.863Z,100934.19
2023-01-22T02:02:10.768Z,100931.60
2023-01-22T02:03:13.076Z,100935.89
2023-01-22T02:04:15.580Z,100937.59
2023-01-22T02:05:19.507Z,100930.73
2023-01-22T02:06:22.187Z,100938.47
2023-01-22T02:07:24.241Z,100937.59
2023-01-22T02:08:26.996Z,100942.75
2023-01-22T02:09:29.322Z,100945.34
2023-01-22T02:10:32.152Z,100942.77
2023-01-22T02:11:35.093Z,100939.34
2023-01-22T02:12:37.440Z,100948.77
2023-01-22T02:13:43.200Z,100950.51
2023-01-22T02:14:46.180Z,100946.19
2023-01-22T02:15:48.376Z,100947.08
2023-01-22T02:17:03.247Z,100949.64
2023-01-22T02:18:05.829Z,100953.05
2023-01-22T02:19:08.260Z,100951.34
2023-01-22T02:20:13.895Z,100954.80
2023-01-22T02:21:36.704Z,100954.78
2023-01-22T02:22:39.661Z,100950.51
2023-01-22T02:23:41.672Z,100955.64
2023-01-22T02:24:44.378Z,100955.65
2023-01-22T02:25:46.953Z,100951.36
2023-01-22T02:26:49.603Z,100952.22
2023-01-22T02:27:53.710Z,100947.05
2023-01-22T02:28:57.458Z,100960.80
2023-01-22T02:30:02.068Z,100956.49
2023-01-22T02:31:04.907Z,100959.94
2023-01-22T02:32:09.150Z,100951.34
2023-01-22T02:33:12.050Z,100961.64
2023-01-22T02:34:16.166Z,100961.66
2023-01-22T02:35:20.341Z,100964.22
2023-01-22T02:36:25.255Z,100958.23
2023-01-22T02:37:27.731Z,100960.80
2023-01-22T02:38:30.916Z,100961.64
2023-01-22T02:39:34.259Z,100960.79
2023-01-22T02:40:40.327Z,100950.50
2023-01-22T02:41:42.922Z,100955.65
2023-01-22T02:42:45.606Z,100956.47
2023-01-22T02:43:47.926Z,100959.94
2023-01-22T02:44:52.392Z,100962.45
2023-01-22T02:45:55.290Z,100961.60
2023-01-22T02:46:58.086Z,100970.20
2023-01-22T02:48:01.680Z,100969.37
2023-01-22T02:49:04.297Z,100962.51
2023-01-22T02:50:09.322Z,100969.33
2023-01-22T02:51:13.957Z,100975.38
2023-01-22T02:52:17.437Z,100969.37
2023-01-22T02:53:21.608Z,100971.09
2023-01-22T02:54:24.894Z,100967.64
2023-01-22T02:55:26.984Z,100968.50
2023-01-22T02:56:33.794Z,100970.24
2023-01-22T02:57:36.136Z,100961.66
2023-01-22T02:58:40.200Z,100971.97
2023-01-22T02:59:42.439Z,100965.09
2023-01-22T03:00:46.436Z,100964.23
2023-01-22T03:01:48.884Z,100964.23
2023-01-22T03:02:51.267Z,100976.26
2023-01-22T03:03:56.429Z,100970.23
2023-01-22T03:05:01.126Z,100979.67
2023-01-22T03:06:04.095Z,100971.94
2023-01-22T03:07:07.490Z,100981.40
2023-01-22T03:08:10.004Z,100977.98
2023-01-22T03:09:15.274Z,100981.41
2023-01-22T03:10:20.389Z,100982.28
2023-01-22T03:11:24.043Z,100985.71
2023-01-22T03:12:27.749Z,100983.97
2023-01-22T03:13:48.214Z,100982.27
2023-01-22T03:15:09.694Z,100983.97
2023-01-22T03:16:31.216Z,100980.56
2023-01-22T03:17:51.827Z,100983.14
2023-01-22T03:19:12.387Z,100977.13
2023-01-22T03:20:34.163Z,100980.54
2023-01-22T03:21:38.221Z,100979.67
2023-01-22T03:22:40.976Z,100980.52
2023-01-22T03:23:47.334Z,100988.25
2023-01-22T03:24:51.505Z,100983.11
2023-01-22T03:25:56.313Z,100986.55
2023-01-22T03:26:58.784Z,100992.55
2023-01-22T03:28:11.048Z,100992.56
2023-01-22T03:29:13.744Z,100993.44
2023-01-22T03:30:17.202Z,100991.70
2023-01-22T03:31:19.947Z,100995.16
2023-01-22T03:32:22.601Z,100994.28
2023-01-22T03:33:24.847Z,100997.72
2023-01-22T03:34:27.108Z,100995.16
2023-01-22T03:35:30.759Z,100994.28
2023-01-22T03:36:47.806Z,100995.16
2023-01-22T03:37:50.162Z,100998.59
2023-01-22T03:38:54.441Z,100998.59
2023-01-22T03:39:58.497Z,100991.73
2023-01-22T03:41:08.794Z,100999.45
2023-01-22T03:42:11.076Z,101001.16
2023-01-22T03:43:13.435Z,101002.87
2023-01-22T03:44:16.007Z,101003.73
2023-01-22T03:45:18.331Z,101001.98
2023-01-22T03:46:21.689Z,101008.86
2023-01-22T03:47:28.754Z,101011.42
2023-01-22T03:48:31.932Z,101015.73
2023-01-22T03:49:33.995Z,101011.44
2023-01-22T03:50:38.198Z,101009.72
2023-01-22T03:51:41.900Z,101016.63
2023-01-22T03:52:44.057Z,101022.63
2023-01-22T03:53:46.984Z,101016.61
2023-01-22T03:54:49.443Z,101020.91
2023-01-22T03:55:59.548Z,101013.19
2023-01-22T03:57:01.919Z,101014.05
2023-01-22T03:58:06.470Z,101011.48
2023-01-22T03:59:10.533Z,101011.48
2023-01-22T04:00:13.918Z,101013.19
2023-01-22T04:01:23.722Z,101015.77
2023-01-22T04:02:26.191Z,101013.20
2023-01-22T04:03:31.377Z,101020.08
2023-01-22T04:04:34.007Z,101009.77
2023-01-22T04:05:37.449Z,101015.77
2023-01-22T04:06:40.031Z,101009.75
2023-01-22T04:07:43.411Z,101011.48
2023-01-22T04:08:47.789Z,101016.62
2023-01-22T04:09:50.821Z,101015.77
2023-01-22T04:10:53.310Z,101016.63
2023-01-22T04:11:55.517Z,101022.63
2023-01-22T04:12:57.624Z,101027.78
2023-01-22T04:13:59.724Z,101028.65
2023-01-22T04:15:04.690Z,101024.34
2023-01-22T04:16:09.436Z,101030.36
2023-01-22T04:17:16.576Z,101028.63
2023-01-22T04:18:21.011Z,101016.61
2023-01-22T04:19:25.131Z,101028.64
2023-01-22T04:20:31.834Z,101028.61
2023-01-22T04:21:36.201Z,101032.08
2023-01-22T04:22:40.140Z,101034.66
2023-01-22T04:23:44.290Z,101038.95
2023-01-22T04:24:46.397Z,101026.92
2023-01-22T04:25:50.749Z,101032.07
2023-01-22T04:26:53.886Z,101036.38
2023-01-22T04:27:56.326Z,101033.80
2023-01-22T04:28:59.128Z,101035.50
2023-01-22T04:30:01.653Z,101032.05
2023-01-22T04:31:04.662Z,101033.73
2023-01-22T04:32:11.725Z,101032.86
2023-01-22T04:33:34.110Z,101043.20
2023-01-22T04:34:38.237Z,101045.78
2023-01-22T04:35:57.291Z,101046.66
2023-01-22T04:37:00.663Z,101046.63
2023-01-22T04:38:07.281Z,101049.17
2023-01-22T04:39:09.627Z,101053.44
2023-01-22T04:40:12.619Z,101066.34
2023-01-22T04:41:14.979Z,101059.48
2023-01-22T04:42:18.552Z,101057.77
2023-01-22T04:43:20.761Z,101067.17
2023-01-22T04:44:22.836Z,101055.18
2023-01-22T04:45:25.075Z,101068.11
2023-01-22T04:46:27.354Z,101068.95
2023-01-22T04:47:29.512Z,101070.69
2023-01-22T04:48:33.368Z,101068.10
2023-01-22T04:49:35.343Z,101064.67
2023-01-22T04:50:39.377Z,101064.64
2023-01-22T04:51:41.762Z,101068.09
2023-01-22T04:52:44.191Z,101065.53
2023-01-22T04:53:46.317Z,101064.67
2023-01-22T04:54:49.180Z,101067.24
2023-01-22T04:55:51.301Z,101067.22
2023-01-22T04:56:53.821Z,101067.25
2023-01-22T04:57:57.794Z,101068.96
2023-01-22T04:59:00.125Z,101068.12
2023-01-22T05:00:04.084Z,101068.14
2023-01-22T05:01:06.477Z,101066.41
2023-01-22T05:02:08.993Z,101064.70
2023-01-22T05:03:12.007Z,101074.13
2023-01-22T05:04:17.371Z,101064.67
2023-01-22T05:05:21.873Z,101072.42
2023-01-22T05:06:24.392Z,101076.72
2023-01-22T05:07:27.158Z,101073.23
2023-01-22T05:08:30.530Z,101077.50
2023-01-22T05:09:32.847Z,101077.45
2023-01-22T05:10:37.203Z,101078.31
2023-01-22T05:11:41.303Z,101075.75
2023-01-22T05:12:44.513Z,101083.47
2023-01-22T05:13:47.780Z,101088.58
2023-01-22T05:14:51.240Z,101079.16
2023-01-22T05:15:54.579Z,101082.50
2023-01-22T05:16:59.220Z,101085.89
2023-01-22T05:18:01.472Z,101085.86
2023-01-22T05:19:05.210Z,101090.19
2023-01-22T05:20:09.134Z,101094.52
2023-01-22T05:21:12.056Z,101090.24
2023-01-22T05:22:14.343Z,101096.23
2023-01-22T05:23:16.472Z,101096.23
2023-01-22T05:24:18.536Z,101094.56
2023-01-22T05:25:21.499Z,101088.55
2023-01-22T05:26:24.188Z,101091.94
2023-01-22T05:27:37.070Z,101088.48
2023-01-22T05:28:41.343Z,101101.38
2023-01-22T05:29:55.041Z,101097.97
2023-01-22T05:31:16.537Z,101105.71
2023-01-22T05:32:26.801Z,101104.84
2023-01-22T05:33:31.671Z,101100.56
2023-01-22T05:34:33.910Z,101104.71
2023-01-22T05:35:36.791Z,101104.71
2023-01-22T05:36:38.968Z,101106.44
2023-01-22T05:37:43.110Z,101108.94
2023-01-22T05:38:46.082Z,101102.11
2023-01-22T05:39:49.270Z,101103.02
2023-01-22T05:40:53.188Z,101103.83
2023-01-22T05:41:56.937Z,101109.02
2023-01-22T05:43:04.649Z,101111.55
2023-01-22T05:44:09.205Z,101122.61
2023-01-22T05:45:12.201Z,101108.94
2023-01-22T05:46:16.640Z,101111.55
2023-01-22T05:47:21.965Z,101114.19
2023-01-22T05:48:44.629Z,101115.85
2023-01-22T05:49:49.452Z,101119.34
2023-01-22T05:50:52.541Z,101127.88
2023-01-22T05:51:55.196Z,101124.38
2023-01-22T05:52:57.826Z,101122.69
2023-01-22T05:54:00.621Z,101127.80
2023-01-22T05:55:06.934Z,101127.80
2023-01-22T05:56:11.438Z,101126.95
2023-01-22T05:57:16.302Z,101134.66
2023-01-22T05:58:18.917Z,101129.36
2023-01-22T05:59:23.149Z,101136.27
2023-01-22T06:00:30.227Z,101131.17
2023-01-22T06:01:33.948Z,101129.44
2023-01-22T06:02:37.300Z,101136.36
2023-01-22T06:03:40.321Z,101135.47
2023-01-22T06:04:43.386Z,101133.78
2023-01-22T06:05:59.373Z,101134.63
2023-01-22T06:07:03.720Z,101148.33
2023-01-22T06:08:06.026Z,101150.06
2023-01-22T06:09:14.860Z,101140.61
2023-01-22T06:10:20.049Z,101139.77
2023-01-22T06:11:24.289Z,101146.72
2023-01-22T06:12:27.695Z,101141.54
2023-01-22T06:13:32.598Z,101148.45
2023-01-22T06:14:37.712Z,101146.72
2023-01-22T06:15:42.885Z,101150.14
2023-01-22T06:16:47.634Z,101147.53
2023-01-22T06:18:08.752Z,101144.99
2023-01-22T06:19:12.235Z,101154.36
2023-01-22T06:20:17.343Z,101152.67
2023-01-22T06:21:20.292Z,101153.59
2023-01-22T06:22:22.883Z,101162.20
2023-01-22T06:23:29.139Z,101160.55
2023-01-22T06:24:31.677Z,101160.51
2023-01-22T06:25:34.813Z,101165.69
2023-01-22T06:26:41.736Z,101163.96
2023-01-22T06:27:46.541Z,101166.47
2023-01-22T06:28:50.051Z,101167.22
2023-01-22T06:29:52.497Z,101169.80
2023-01-22T06:30:58.320Z,101163.00
2023-01-22T06:32:00.788Z,101168.15
2023-01-22T06:33:03.322Z,101170.76
2023-01-22T06:34:06.319Z,101174.22
2023-01-22T06:35:09.379Z,101175.09
2023-01-22T06:36:12.834Z,101175.98
2023-01-22T06:37:15.438Z,101175.10
2023-01-22T06:38:18.668Z,101174.18
2023-01-22T06:39:21.121Z,101169.80
2023-01-22T06:40:25.697Z,101173.13
2023-01-22T06:41:28.168Z,101179.16
2023-01-22T06:42:32.388Z,101177.52
2023-01-22T06:43:37.074Z,101182.78
2023-01-22T06:44:39.313Z,101183.66
2023-01-22T06:45:43.420Z,101179.44
2023-01-22T06:46:46.800Z,101191.50
2023-01-22T06:47:57.058Z,101181.09
2023-01-22T06:49:01.048Z,101187.97
2023-01-22T06:50:04.649Z,101193.15
2023-01-22T06:51:07.939Z,101191.45
2023-01-22T06:52:11.517Z,101190.58
2023-01-22T06:53:13.894Z,101198.22
2023-01-22T06:54:16.112Z,101201.59
2023-01-22T06:55:19.000Z,101196.45
2023-01-22T06:56:21.611Z,101205.00
2023-01-22T06:57:24.152Z,101209.27
2023-01-22T06:58:26.409Z,101213.61
2023-01-22T06:59:28.482Z,101211.84
2023-01-22T07:00:32.319Z,101215.26
2023-01-22T07:01:34.599Z,101211.93
2023-01-22T07:02:36.896Z,101209.31
2023-01-22T07:03:39.553Z,101215.26
2023-01-22T07:04:42.459Z,101209.27
2023-01-22T07:05:44.888Z,101210.16
2023-01-22T07:06:47.712Z,101214.50
2023-01-22T07:07:55.220Z,101220.44
2023-01-22T07:08:58.172Z,101215.39
2023-01-22T07:10:01.197Z,101210.32
2023-01-22T07:11:07.637Z,101219.00
2023-01-22T07:12:09.873Z,101213.92
2023-01-22T07:13:14.158Z,101213.07
2023-01-22T07:14:28.841Z,101218.11
2023-01-22T07:15:23.070Z,101224.15
2023-01-22T07:16:26.781Z,101222.42
2023-01-22T07:17:29.152Z,101227.61
2023-01-22T07:18:31.723Z,101222.49
2023-01-22T07:19:35.152Z,101225.80
2023-01-22T07:20:37.766Z,101220.69
2023-01-22T07:21:40.534Z,101218.11
2023-01-22T07:22:42.857Z,101217.23
2023-01-22T07:23:47.059Z,101215.47
2023-01-22T07:24:49.834Z,101218.88
2023-01-22T07:25:52.086Z,101224.08
2023-01-22T07:26:54.701Z,101225.72
2023-01-22T07:28:04.204Z,101223.06
2023-01-22T07:29:07.759Z,101227.33
2023-01-22T07:30:12.968Z,101219.69
2023-01-22T07:31:15.740Z,101222.26
2023-01-22T07:32:17.896Z,101231.67
2023-01-22T07:33:20.047Z,101226.57
2023-01-22T07:34:22.568Z,101230.02
2023-01-22T07:35:24.924Z,101229.26
2023-01-22T07:36:27.496Z,101225.84
2023-01-22T07:37:29.897Z,101229.09
2023-01-22T07:38:32.008Z,101229.14
2023-01-22T07:39:34.961Z,101233.31
2023-01-22T07:40:38.316Z,101233.31
2023-01-22T07:41:41.980Z,101236.81
2023-01-22T07:42:48.168Z,101225.72
2023-01-22T07:43:52.646Z,101227.45
2023-01-22T07:44:55.853Z,101232.64
2023-01-22T07:46:04.172Z,101234.28
2023-01-22T07:47:06.603Z,101230.77
2023-01-22T07:48:11.216Z,101229.09
2023-01-22T07:49:14.303Z,101229.02
2023-01-22T07:50:16.861Z,101240.92
2023-01-22T07:51:20.197Z,101237.55
2023-01-22T07:52:22.421Z,101235.88
2023-01-22T07:53:24.689Z,101239.30
2023-01-22T07:54:26.854Z,101234.23
2023-01-22T07:55:30.789Z,101242.80
2023-01-22T07:56:34.581Z,101246.17
2023-01-22T07:57:37.421Z,101248.70
2023-01-22T07:58:41.083Z,101246.22
2023-01-22T07:59:43.536Z,101244.52
2023-01-22T08:00:45.940Z,101242.84
2023-01-22T08:01:48.187Z,101241.08
2023-01-22T08:02:50.595Z,101251.32
2023-01-22T08:03:52.616Z,101242.01
2023-01-22T08:04:55.496Z,101252.42
2023-01-22T08:05:57.646Z,101252.42
2023-01-22T08:07:00.595Z,101246.39
2023-01-22T08:08:02.937Z,101244.70
2023-01-22T08:09:07.425Z,101249.04
2023-01-22T08:10:11.650Z,101244.85
2023-01-22T08:11:14.019Z,101253.39
2023-01-22T08:12:16.042Z,101251.77
2023-01-22T08:13:19.519Z,101246.55
2023-01-22T08:14:22.781Z,101248.31
2023-01-22T08:15:25.630Z,101250.03
2023-01-22T08:16:28.045Z,101250.91
2023-01-22T08:17:30.787Z,101257.83
2023-01-22T08:18:32.724Z,101255.22
2023-01-22T08:19:35.083Z,101249.16
2023-01-22T08:20:37.581Z,101253.38
2023-01-22T08:21:40.218Z,101248.23
2023-01-22T08:22:44.143Z,101249.00
2023-01-22T08:23:49.214Z,101257.62
2023-01-22T08:24:52.100Z,101257.62
2023-01-22T08:26:03.465Z,101258.46
2023-01-22T08:27:05.759Z,101259.30
2023-01-22T08:28:08.003Z,101258.45
2023-01-22T08:29:10.603Z,101260.95
2023-01-22T08:30:15.537Z,101268.63
2023-01-22T08:31:27.445Z,101268.75
2023-01-22T08:32:22.209Z,101263.65
2023-01-22T08:33:24.676Z,101272.25
2023-01-22T08:34:28.252Z,101269.59
2023-01-22T08:35:31.514Z,101267.87
2023-01-22T08:36:33.997Z,101273.94
2023-01-22T08:37:36.317Z,101267.02
2023-01-22T08:38:38.569Z,101268.63
2023-01-22T08:39:41.035Z,101272.97
2023-01-22T08:40:43.220Z,101271.33
2023-01-22T08:41:45.422Z,101267.06
2023-01-22T08:43:01.090Z,101273.02
2023-01-22T08:44:03.550Z,101270.44
2023-01-22T08:45:11.944Z,101261.83
2023-01-22T08:46:14.529Z,101270.36
2023-01-22T08:47:17.811Z,101268.63
2023-01-22T08:48:19.809Z,101267.73
2023-01-22T08:49:21.842Z,101264.22
2023-01-22T08:50:23.928Z,101270.22
2023-01-22T08:51:26.802Z,101265.87
2023-01-22T08:52:29.720Z,101276.16
2023-01-22T08:53:33.159Z,101266.00
2023-01-22T08:54:35.469Z,101262.54
2023-01-22T08:55:38.117Z,101271.95
2023-01-22T08:56:41.093Z,101268.53
2023-01-22T08:57:43.317Z,101269.52
2023-01-22T08:58:54.259Z,101269.52
2023-01-22T09:00:01.336Z,101266.05
2023-01-22T09:01:01.037Z,101272.83
2023-01-22T09:02:03.450Z,101272.03
2023-01-22T09:03:05.587Z,101266.94
2023-01-22T09:04:10.507Z,101272.97
2023-01-22T09:05:12.754Z,101265.25
2023-01-22T09:06:15.402Z,101264.31
2023-01-22T09:07:17.867Z,101275.50
2023-01-22T09:08:21.575Z,101269.59
2023-01-22T09:09:23.720Z,101260.19
2023-01-22T09:10:26.155Z,101261.83
2023-01-22T09:11:29.152Z,101267.83
2023-01-22T09:12:31.306Z,101265.20
2023-01-22T09:13:33.838Z,101274.66
2023-01-22T09:14:35.988Z,101271.11
2023-01-22T09:15:39.692Z,101273.72
2023-01-22T09:16:42.508Z,101272.84
2023-01-22T09:17:45.174Z,101272.04
2023-01-22T09:18:47.197Z,101265.20
2023-01-22T09:19:49.704Z,101275.55
2023-01-22T09:20:52.415Z,101265.08
2023-01-22T09:21:54.431Z,101260.86
2023-01-22T09:22:56.539Z,101265.16
2023-01-22T09:23:59.392Z,101264.32
2023-01-22T09:25:01.849Z,101264.32
2023-01-22T09:26:05.768Z,101278.08
2023-01-22T09:27:08.727Z,101278.08
2023-01-22T09:28:12.441Z,101282.42
2023-01-22T09:29:14.950Z,101275.55
2023-01-22T09:30:18.295Z,101272.97
2023-01-22T09:31:20.871Z,101280.78
2023-01-22T09:32:23.692Z,101275.67
2023-01-22T09:33:26.397Z,101273.10
2023-01-22T09:34:29.159Z,101276.48
2023-01-22T09:35:31.302Z,101273.86
2023-01-22T09:36:34.293Z,101281.58
2023-01-22T12:02:16.129Z,101329.70
2023-01-22T12:03:34.144Z,101332.97
2023-01-22T12:04:57.879Z,101332.89
2023-01-22T12:06:26.846Z,101338.28
2023-01-22T12:07:38.654Z,101334.83
2023-01-22T12:08:44.367Z,101332.27
2023-01-22T12:10:24.088Z,101327.19
2023-01-22T12:11:49.573Z,101337.39
2023-01-22T12:13:12.217Z,101335.66
2023-01-22T12:14:34.755Z,101335.84
2023-01-22T12:15:52.807Z,101336.88
2023-01-22T12:18:37.165Z,101335.48
2023-01-22T12:20:04.794Z,101342.36
2023-01-22T12:23:05.040Z,101329.59
2023-01-22T12:24:32.468Z,101342.25
2023-01-22T12:25:52.224Z,101338.06
2023-01-22T12:27:01.457Z,101340.45
2023-01-22T12:28:29.913Z,101339.64
2023-01-22T12:30:59.275Z,101342.31
2023-01-22T12:32:14.430Z,101342.37
2023-01-22T12:33:20.142Z,101345.83
2023-01-22T12:34:26.251Z,101337.27
2023-01-22T12:35:31.171Z,101337.31
2023-01-22T12:36:34.147Z,101340.82
2023-01-22T12:37:46.000Z,101342.52
2023-01-22T12:38:54.923Z,101328.80
2023-01-22T12:40:21.045Z,101334.09
2023-01-22T12:41:43.787Z,101337.50
2023-01-22T12:42:55.999Z,101337.50
2023-01-22T12:44:33.568Z,101352.01
2023-01-22T12:45:57.373Z,101352.84
2023-01-22T12:47:37.511Z,101351.08
2023-01-22T12:48:58.036Z,101347.61
2023-01-22T12:50:00.241Z,101345.66
2023-01-22T12:51:02.562Z,101355.00
2023-01-22T12:52:04.720Z,101345.55
2023-01-22T12:53:36.291Z,101358.41
2023-01-22T12:54:39.387Z,101350.80
2023-01-22T12:55:44.792Z,101355.06
2023-01-22T12:56:49.993Z,101351.66
2023-01-22T12:57:52.826Z,101353.50
2023-01-22T12:58:59.027Z,101357.84
2023-01-22T13:00:22.000Z,101350.97
2023-01-22T13:01:31.557Z,101363.78
2023-01-22T13:02:38.432Z,101351.64
2023-01-22T13:03:42.024Z,101357.75
2023-01-22T13:04:44.956Z,101359.42
2023-01-22T13:05:48.038Z,101355.90
2023-01-22T13:06:50.191Z,101354.16
2023-01-22T13:08:07.108Z,101364.73
2023-01-22T13:09:25.282Z,101365.30
2023-01-22T13:10:31.727Z,101368.76
2023-01-22T13:11:39.178Z,101362.84
2023-01-22T13:12:47.051Z,101368.03
2023-01-22T13:13:53.981Z,101367.92
2023-01-22T13:14:59.081Z,101370.38
2023-01-22T13:16:08.469Z,101365.03
2023-01-22T13:17:26.565Z,101377.13
2023-01-22T13:18:35.269Z,101367.61
2023-01-22T13:19:46.424Z,101371.14
2023-01-22T13:21:05.459Z,101371.92
2023-01-22T13:22:11.734Z,101377.01
2023-01-22T13:23:15.398Z,101372.11
2023-01-22T13:24:19.854Z,101373.70
2023-01-22T13:25:28.749Z,101366.19
2023-01-22T13:26:34.987Z,101366.84
2023-01-22T13:27:37.403Z,101375.45
2023-01-22T13:28:41.603Z,101370.31
2023-01-22T13:29:45.278Z,101378.75
2023-01-22T13:31:03.734Z,101378.86
2023-01-22T13:32:18.897Z,101379.72
2023-01-22T13:33:22.770Z,101383.16
2023-01-22T13:34:26.958Z,101372.70
2023-01-22T13:35:30.422Z,101376.22
2023-01-22T13:36:32.721Z,101377.14
2023-01-22T13:37:35.317Z,101374.58
2023-01-22T13:38:37.693Z,101386.63
2023-01-22T13:39:40.589Z,101383.35
2023-01-22T13:40:51.379Z,101393.45
2023-01-22T13:41:51.170Z,101395.12
2023-01-22T13:42:55.099Z,101392.62
2023-01-22T13:43:58.888Z,101396.93
2023-01-22T13:45:03.417Z,101397.77
2023-01-22T13:46:07.611Z,101390.76
2023-01-22T13:47:19.224Z,101390.69
2023-01-22T13:48:25.093Z,101392.38
2023-01-22T13:49:29.914Z,101393.13
2023-01-22T13:50:33.376Z,101391.32
2023-01-22T13:51:36.268Z,101389.77
2023-01-22T13:52:39.835Z,101394.03
2023-01-22T13:53:50.736Z,101392.27
2023-01-22T13:55:05.955Z,101391.38
2023-01-22T13:56:17.509Z,101400.63
2023-01-22T13:57:24.329Z,101391.32
2023-01-22T13:58:48.036Z,101396.54
2023-01-22T13:59:56.367Z,101387.97
2023-01-22T14:00:59.332Z,101393.03
2023-01-22T14:02:21.265Z,101386.23
2023-01-22T14:03:26.877Z,101398.33
2023-01-22T14:04:37.669Z,101403.20
2023-01-22T14:05:40.326Z,101403.09
2023-01-22T14:06:49.364Z,101397.97
2023-01-22T14:08:05.932Z,101403.02
2023-01-22T14:09:10.001Z,101397.90
2023-01-22T14:10:23.338Z,101399.47
2023-01-22T14:11:29.398Z,101397.50
2023-01-22T14:12:33.611Z,101411.09
2023-01-22T14:13:41.401Z,101407.66
2023-01-22T14:14:44.728Z,101410.16
2023-01-22T14:15:56.663Z,101409.32
2023-01-22T14:16:58.983Z,101414.61
2023-01-22T14:18:16.905Z,101413.98
2023-01-22T14:19:20.403Z,101423.39
2023-01-22T14:20:23.690Z,101418.26
2023-01-22T14:21:25.759Z,101423.48
2023-01-22T14:22:28.607Z,101424.25
2023-01-22T14:23:31.152Z,101426.05
2023-01-22T14:24:34.336Z,101422.73
2023-01-22T14:25:42.821Z,101429.73
2023-01-22T14:26:47.359Z,101426.30
2023-01-22T14:27:50.382Z,101424.63
2023-01-22T14:28:53.167Z,101440.01
2023-01-22T14:29:55.788Z,101431.97
2023-01-22T14:30:58.808Z,101432.80
2023-01-22T14:32:01.496Z,101433.84
2023-01-22T14:33:04.697Z,101433.96
2023-01-22T14:34:09.044Z,101433.13
2023-01-22T14:35:23.692Z,101440.67
2023-01-22T14:36:26.078Z,101433.87
2023-01-22T14:37:28.702Z,101434.02
2023-01-22T14:38:31.054Z,101435.52
2023-01-22T14:39:35.642Z,101435.52
2023-01-22T14:40:38.331Z,101440.48
2023-01-22T14:41:41.041Z,101439.41
2023-01-22T14:42:43.409Z,101442.82
2023-01-22T14:43:45.822Z,101443.14
2023-01-22T14:44:48.696Z,101441.02
2023-01-22T14:45:51.032Z,101449.84
2023-01-22T14:46:54.002Z,101447.46
2023-01-22T14:47:57.961Z,101440.59
2023-01-22T14:49:01.915Z,101450.23
2023-01-22T14:50:07.125Z,101452.91
2023-01-22T14:51:12.692Z,101439.34
2023-01-22T14:52:15.379Z,101445.56